Time;durP1;ratioP1;P1;durP2;ratioP2;P2;SDS_P1;SDS_P2;PMS_P1;PMS_P2;Temp;Humidity;BMP_temperature;BMP_pressure;BME280_temperature;BME280_humidity;BME280_pressure;Samples;Min_cycle;Max_cycle;Signal;HPM_P1;HPM_P2
2023/02/08 05:10:42;;;;;;;17.95;10.13;;;9.00;56.70;;;;;;5443966;24;20493;-73
2023/02/08 05:13:08;;;;;;;14.38;9.30;;;9.20;56.90;;;;;;4845122;29;20054;-78
2023/02/08 05:15:34;;;;;;;20.48;10.70;;;9.30;57.10;;;;;;4844297;29;20061;-75
2023/02/08 05:17:59;;;;;;;23.42;9.88;;;9.50;57.70;;;;;;4845081;29;20103;-77
2023/02/08 05:20:29;;;;;;;24.73;9.90;;;9.60;58.50;;;;;;4845135;29;20153;-75
2023/02/08 05:22:55;;;;;;;19.65;9.65;;;9.70;58.70;;;;;;4844986;29;20373;-75
2023/02/08 05:25:20;;;;;;;22.70;9.95;;;10.00;58.70;;;;;;4845578;29;20049;-77
2023/02/08 05:27:46;;;;;;;28.17;9.75;;;10.30;58.90;;;;;;4845369;29;20050;-76
2023/02/08 05:30:12;;;;;;;58.42;10.25;;;10.50;60.40;;;;;;4844893;29;20057;-75
2023/02/08 05:32:38;;;;;;;28.85;8.95;;;10.80;59.20;;;;;;4844446;29;20118;-77
2023/02/08 05:35:04;;;;;;;29.60;9.52;;;11.00;59.20;;;;;;4844939;29;20050;-75
2023/02/08 05:37:29;;;;;;;24.92;8.90;;;11.10;59.10;;;;;;4844924;29;20433;-74
2023/02/08 05:39:55;;;;;;;20.27;8.23;;;11.30;59.20;;;;;;4844950;29;20050;-74
2023/02/08 05:42:21;;;;;;;25.67;9.07;;;11.40;59.30;;;;;;4844791;29;20060;-76
2023/02/08 05:44:47;;;;;;;30.50;9.18;;;11.60;60.00;;;;;;4844865;29;20136;-76
2023/02/08 05:47:12;;;;;;;17.50;8.68;;;11.70;60.00;;;;;;4844964;29;20126;-75
2023/02/08 05:49:38;;;;;;;26.75;8.57;;;11.90;60.30;;;;;;4844650;29;20046;-73
2023/02/08 05:52:04;;;;;;;35.13;8.98;;;11.90;60.30;;;;;;4844724;29;20441;-75
2023/02/08 05:54:30;;;;;;;30.52;8.40;;;12.10;60.30;;;;;;4844772;29;20105;-75
2023/02/08 05:56:55;;;;;;;20.85;7.13;;;12.20;60.20;;;;;;4828968;29;20081;-74
2023/02/08 05:59:21;;;;;;;15.77;6.78;;;12.30;60.10;;;;;;4844207;29;20048;-74
2023/02/08 06:01:47;;;;;;;20.02;7.28;;;12.40;60.10;;;;;;4829378;29;20072;-73
2023/02/08 06:04:13;;;;;;;16.85;6.50;;;12.40;60.00;;;;;;4841817;29;20069;-73
2023/02/08 06:06:39;;;;;;;22.60;7.25;;;12.50;60.00;;;;;;4844287;29;20365;-76
2023/02/08 06:09:04;;;;;;;19.75;6.45;;;12.60;59.90;;;;;;4828715;29;20084;-75
2023/02/08 06:11:30;;;;;;;22.25;6.72;;;12.70;59.80;;;;;;4844013;29;20070;-75
2023/02/08 06:13:56;;;;;;;16.10;6.22;;;12.80;59.90;;;;;;4843936;29;20469;-72
2023/02/08 06:16:21;;;;;;;18.77;7.25;;;12.90;59.80;;;;;;4844118;29;20330;-76
2023/02/08 06:18:47;;;;;;;22.60;5.70;;;12.90;59.50;;;;;;4844306;29;20469;-72
2023/02/08 06:21:13;;;;;;;15.30;7.10;;;13.00;59.50;;;;;;4844786;29;20118;-77
2023/02/08 06:23:38;;;;;;;16.38;5.80;;;12.70;55.40;;;;;;4843510;29;20121;-76
2023/02/08 06:26:04;;;;;;;20.67;6.63;;;12.90;59.10;;;;;;4827585;29;20133;-73
2023/02/08 06:28:30;;;;;;;17.65;7.30;;;13.00;59.10;;;;;;4843873;29;20082;-73
2023/02/08 06:30:56;;;;;;;18.00;6.03;;;13.00;58.70;;;;;;4844091;29;20370;-74
2023/02/08 06:33:21;;;;;;;20.40;6.85;;;13.10;59.00;;;;;;4843948;29;20049;-74
2023/02/08 06:35:50;;;;;;;18.42;6.35;;;13.20;59.00;;;;;;4843769;29;20346;-75
2023/02/08 06:38:17;;;;;;;14.23;6.57;;;13.30;58.70;;;;;;4844769;29;20319;-72
2023/02/08 06:40:45;;;;;;;17.42;6.20;;;13.40;58.50;;;;;;4844177;29;20475;-69
2023/02/08 06:43:10;;;;;;;20.02;6.35;;;13.40;58.40;;;;;;4844290;29;20042;-72
2023/02/08 06:45:36;;;;;;;16.83;6.05;;;13.50;58.20;;;;;;4844285;29;20125;-76
2023/02/08 06:48:02;;;;;;;18.95;6.40;;;13.60;58.00;;;;;;4844301;29;20062;-72
2023/02/08 06:50:28;;;;;;;17.38;6.28;;;13.60;57.90;;;;;;4843983;29;20069;-75
2023/02/08 06:52:53;;;;;;;15.75;5.40;;;13.60;57.90;;;;;;4827756;29;20077;-74
2023/02/08 06:55:19;;;;;;;20.80;7.10;;;13.70;57.90;;;;;;4844223;29;20347;-73
2023/02/08 06:57:45;;;;;;;27.63;8.05;;;13.70;58.00;;;;;;4844232;29;20438;-73
2023/02/08 07:00:11;;;;;;;28.17;7.30;;;13.70;58.00;;;;;;4828799;29;20057;-75
2023/02/08 07:02:37;;;;;;;24.25;8.25;;;13.80;58.30;;;;;;4843535;29;20050;-73
2023/02/08 07:05:02;;;;;;;32.80;7.32;;;13.80;58.20;;;;;;4843928;29;20202;-73
2023/02/08 07:07:31;;;;;;;37.80;8.75;;;13.90;58.30;;;;;;4828169;29;20180;-73
2023/02/08 07:09:57;;;;;;;33.60;7.80;;;13.80;56.60;;;;;;4843295;29;20065;-73
2023/02/08 07:12:23;;;;;;;30.67;8.20;;;13.90;58.00;;;;;;4843064;29;20477;-71
2023/02/08 07:14:49;;;;;;;33.92;9.07;;;13.90;58.20;;;;;;4843590;29;20133;-74
2023/02/08 07:17:14;;;;;;;30.88;11.35;;;14.00;57.70;;;;;;4843867;29;20050;-71
2023/02/08 07:19:40;;;;;;;28.92;11.35;;;13.90;55.50;;;;;;4827841;29;20127;-73
2023/02/08 07:22:09;;;;;;;28.20;11.40;;;13.90;53.40;;;;;;4844222;29;20347;-74
2023/02/08 07:24:39;;;;;;;26.13;9.75;;;13.90;53.20;;;;;;4843893;29;20054;-74
2023/02/08 07:27:07;;;;;;;20.20;9.18;;;13.90;53.30;;;;;;4843461;29;20046;-73
2023/02/08 07:29:33;;;;;;;21.75;8.77;;;14.00;53.50;;;;;;4843419;29;20096;-73
2023/02/08 07:32:00;;;;;;;20.85;8.23;;;14.00;53.80;;;;;;4847291;29;20053;-71
2023/02/08 07:34:28;;;;;;;30.35;9.23;;;14.10;54.00;;;;;;4847680;29;20359;-71
2023/02/08 07:36:54;;;;;;;23.33;8.98;;;14.10;54.50;;;;;;4830813;29;20065;-76
2023/02/08 07:39:20;;;;;;;26.08;9.02;;;14.20;55.10;;;;;;4846342;29;20054;-72
2023/02/08 07:41:46;;;;;;;23.83;8.65;;;14.20;55.60;;;;;;4829588;29;20174;-76
2023/02/08 07:44:12;;;;;;;14.00;7.05;;;14.20;55.90;;;;;;4845935;29;20105;-73
2023/02/08 07:46:39;;;;;;;14.82;6.90;;;14.30;56.00;;;;;;4844301;29;20078;-76
2023/02/08 07:49:05;;;;;;;16.23;6.70;;;14.10;55.80;;;;;;4858981;29;20110;-72
2023/02/08 07:51:31;;;;;;;14.82;6.68;;;14.20;56.10;;;;;;4846312;29;20050;-77
2023/02/08 07:54:01;;;;;;;11.98;6.20;;;14.20;56.00;;;;;;4846022;29;20074;-77
2023/02/08 07:56:36;;;;;;;12.52;6.20;;;14.30;55.80;;;;;;4845380;29;20050;-76
2023/02/08 07:59:02;;;;;;;11.55;6.00;;;14.40;55.70;;;;;;4835580;29;20053;-77
2023/02/08 08:01:28;;;;;;;12.50;5.55;;;14.40;55.70;;;;;;4845192;29;20110;-76
2023/02/08 08:03:54;;;;;;;16.35;5.72;;;14.40;55.10;;;;;;4852718;29;20054;-77
2023/02/08 08:06:21;;;;;;;10.93;5.47;;;14.30;55.60;;;;;;4846201;29;20374;-77
2023/02/08 08:08:50;;;;;;;11.10;6.03;;;14.30;55.60;;;;;;4845282;29;20049;-79
2023/02/08 08:11:20;;;;;;;8.55;5.53;;;14.30;55.50;;;;;;4845483;29;20431;-79
2023/02/08 08:14:06;;;;;;;7.72;4.78;;;14.30;55.80;;;;;;4857238;29;20053;-80
2023/02/08 08:16:37;;;;;;;6.63;4.43;;;14.30;55.90;;;;;;4833198;29;20149;-82
2023/02/08 08:19:03;;;;;;;10.30;4.80;;;14.30;55.90;;;;;;4838174;29;20069;-79
2023/02/08 08:21:29;;;;;;;8.95;4.40;;;14.40;55.90;;;;;;4845542;29;20046;-80
2023/02/08 08:23:55;;;;;;;7.75;4.65;;;14.50;55.80;;;;;;4847903;29;20053;-79
2023/02/08 08:26:28;;;;;;;9.50;4.68;;;14.20;54.50;;;;;;4818978;29;20085;-79
2023/02/08 08:28:55;;;;;;;8.45;4.30;;;14.40;55.90;;;;;;4852671;29;20061;-80
2023/02/08 08:31:21;;;;;;;6.35;4.07;;;14.50;55.90;;;;;;4852495;29;20041;-80
2023/02/08 08:33:48;;;;;;;8.43;3.78;;;14.50;56.00;;;;;;4853454;29;20129;-76
2023/02/08 08:36:13;;;;;;;6.70;4.05;;;14.60;56.00;;;;;;4848246;29;20050;-75
2023/02/08 08:38:42;;;;;;;7.28;3.70;;;14.40;55.80;;;;;;4844771;29;20476;-77
2023/02/08 08:41:13;;;;;;;8.23;3.75;;;14.50;56.20;;;;;;4830525;29;20056;-75
2023/02/08 08:43:39;;;;;;;11.23;4.28;;;14.50;56.10;;;;;;4845290;29;20060;-79
2023/02/08 08:46:06;;;;;;;7.38;3.67;;;14.50;55.90;;;;;;4845480;29;20053;-79
2023/02/08 08:48:34;;;;;;;7.30;3.97;;;14.60;56.00;;;;;;4845236;29;20053;-76
2023/02/08 08:50:59;;;;;;;6.28;3.58;;;14.70;55.90;;;;;;4845154;29;20054;-76
2023/02/08 08:53:25;;;;;;;10.13;3.88;;;14.70;55.80;;;;;;4845763;29;20404;-78
2023/02/08 08:55:51;;;;;;;5.80;3.20;;;14.80;55.80;;;;;;4845250;29;20438;-82
2023/02/08 08:58:17;;;;;;;14.95;4.40;;;14.80;55.70;;;;;;4845338;29;20065;-74
2023/02/08 09:00:43;;;;;;;7.82;3.78;;;14.90;55.60;;;;;;4845195;29;20129;-78
2023/02/08 09:03:08;;;;;;;5.90;3.40;;;14.90;55.40;;;;;;4844298;29;20141;-75
2023/02/08 09:05:35;;;;;;;9.18;3.53;;;14.90;55.20;;;;;;4845128;29;20050;-76
2023/02/08 09:08:02;;;;;;;7.20;3.10;;;15.00;55.10;;;;;;4845011;29;20077;-76
2023/02/08 09:10:29;;;;;;;6.72;3.33;;;15.00;55.10;;;;;;4835658;29;20060;-80
2023/02/08 09:12:57;;;;;;;8.75;3.83;;;15.10;55.60;;;;;;4831127;29;20140;-76
2023/02/08 09:15:23;;;;;;;8.95;3.58;;;15.10;54.90;;;;;;4844523;29;20190;-76
2023/02/08 09:17:49;;;;;;;8.95;3.92;;;15.10;54.80;;;;;;4847898;29;20133;-79
2023/02/08 09:20:14;;;;;;;9.27;4.38;;;15.20;55.10;;;;;;4844963;29;20469;-79
2023/02/08 09:22:40;;;;;;;12.73;4.00;;;15.20;55.10;;;;;;4850329;29;20133;-72
2023/02/08 09:25:06;;;;;;;10.93;3.85;;;15.20;55.20;;;;;;4863612;29;20049;-75
2023/02/08 09:27:33;;;;;;;8.60;3.47;;;15.20;55.20;;;;;;4847743;29;20049;-74
2023/02/08 09:29:59;;;;;;;11.77;3.33;;;15.30;55.20;;;;;;4847186;29;20053;-78
2023/02/08 09:32:25;;;;;;;12.60;3.83;;;15.30;55.20;;;;;;4846622;29;20361;-73
2023/02/08 09:34:50;;;;;;;24.10;4.38;;;15.30;55.10;;;;;;4862930;29;20194;-75
2023/02/08 09:37:16;;;;;;;15.00;4.90;;;15.30;55.20;;;;;;4863117;29;20053;-72
2023/02/08 09:39:43;;;;;;;12.82;3.80;;;15.30;55.20;;;;;;4863389;29;20153;-71
2023/02/08 09:42:20;;;;;;;13.65;4.25;;;15.30;55.20;;;;;;4863441;29;20053;-72
2023/02/08 09:45:10;;;;;;;10.55;4.28;;;15.30;55.00;;;;;;4843119;29;20062;-70
2023/02/08 09:48:01;;;;;;;11.70;3.58;;;15.30;55.10;;;;;;4842507;29;20061;-72
2023/02/08 09:50:35;;;;;;;14.55;4.60;;;15.30;55.30;;;;;;4839864;29;20072;-75
2023/02/08 09:53:13;;;;;;;;;;;15.40;55.50;;;;;;4861712;29;20394;-76
2023/02/08 09:55:45;;;;;;;18.10;3.92;;;15.40;55.50;;;;;;4855571;29;19920;-75
2023/02/08 09:58:41;;;;;;;15.20;3.50;;;15.50;55.70;;;;;;4842611;29;20038;-75
2023/02/08 10:01:17;;;;;;;10.48;3.65;;;15.50;55.70;;;;;;4843972;29;20033;-76
2023/02/08 10:03:44;;;;;;;12.60;3.92;;;15.50;55.70;;;;;;4840305;29;20133;-75
2023/02/08 10:06:16;;;;;;;13.23;4.20;;;15.50;55.80;;;;;;4817218;29;20481;-77
2023/02/08 10:08:43;;;;;;;17.17;5.60;;;15.60;54.90;;;;;;4835213;29;20411;-72
2023/02/08 10:11:21;;;;;;;11.95;4.50;;;15.50;54.10;;;;;;4835598;29;20126;-74
2023/02/08 10:13:54;;;;;;;16.17;4.80;;;15.50;53.90;;;;;;4851465;29;20049;-74
2023/02/08 10:16:40;;;;;;;9.70;3.80;;;15.50;53.90;;;;;;4851486;29;20134;-73
2023/02/08 10:19:37;;;;;;;9.65;4.00;;;15.50;53.90;;;;;;4850425;29;20054;-73
2023/02/08 10:22:11;;;;;;;8.18;3.78;;;15.50;54.00;;;;;;4845511;29;20057;-74
2023/02/08 10:24:57;;;;;;;10.00;4.03;;;15.50;54.20;;;;;;4824483;29;20097;-75
2023/02/08 10:27:42;;;;;;;5.60;3.15;;;15.60;54.30;;;;;;4805908;29;20061;-73
2023/02/08 10:30:26;;;;;;;10.25;3.83;;;15.60;54.10;;;;;;4850315;29;20126;-74
2023/02/08 10:33:17;;;;;;;10.02;3.90;;;15.40;52.30;;;;;;4846346;29;20091;-74
2023/02/08 10:35:48;;;;;;;9.13;4.07;;;15.50;54.10;;;;;;4845083;29;20061;-75
2023/02/08 10:38:20;;;;;;;13.98;4.22;;;15.50;54.30;;;;;;4843089;29;20534;-76
2023/02/08 10:41:14;;;;;;;11.15;4.50;;;15.50;54.20;;;;;;4848100;29;20077;-77
2023/02/08 10:44:00;;;;;;;8.18;4.78;;;15.60;54.40;;;;;;4836713;29;20062;-74
2023/02/08 10:46:48;;;;;;;9.30;6.40;;;15.70;54.80;;;;;;4828912;29;20587;-78
2023/02/08 10:49:26;;;;;;;8.60;6.55;;;15.70;52.10;;;;;;4816996;29;20130;-79
2023/02/08 10:51:55;;;;;;;14.80;7.95;;;15.80;50.50;;;;;;4827783;29;20053;-76
2023/02/08 10:54:21;;;;;;;17.65;9.35;;;15.70;49.00;;;;;;4850236;29;20464;-76
2023/02/08 10:57:01;;;;;;;15.20;7.88;;;15.60;47.50;;;;;;4845615;29;20053;-74
2023/02/08 10:59:35;;;;;;;12.57;7.53;;;15.50;46.70;;;;;;4842727;29;20120;-77
2023/02/08 11:02:01;;;;;;;;;;;15.40;47.00;;;;;;4828603;29;20130;-76
2023/02/08 11:04:27;;;;;;;14.88;7.00;;;15.40;47.30;;;;;;4836407;29;20012;-76
2023/02/08 11:06:53;;;;;;;10.35;7.22;;;15.30;48.60;;;;;;4837371;29;20069;-76
2023/02/08 11:09:31;;;;;;;12.77;7.20;;;15.30;49.30;;;;;;4823731;29;20440;-76
2023/02/08 11:12:00;;;;;;;15.95;10.77;;;15.20;50.20;;;;;;4845843;29;20054;-79
2023/02/08 11:14:39;;;;;;;14.55;9.65;;;15.20;52.60;;;;;;4843244;29;20061;-78
2023/02/08 11:17:23;;;;;;;9.60;6.50;;;15.10;53.90;;;;;;4829569;29;20050;-78
2023/02/08 11:19:49;;;;;;;13.05;7.25;;;15.10;52.90;;;;;;4855188;29;20042;-79
2023/02/08 11:22:18;;;;;;;16.65;8.00;;;15.00;53.60;;;;;;4844896;29;20046;-78
2023/02/08 11:24:52;;;;;;;14.07;7.75;;;14.90;54.70;;;;;;4829625;29;20033;-79
2023/02/08 11:27:27;;;;;;;16.88;7.82;;;14.90;54.80;;;;;;4807442;29;20050;-79
2023/02/08 11:30:14;;;;;;;13.63;6.55;;;14.80;54.80;;;;;;4846160;29;20110;-77
2023/02/08 11:32:41;;;;;;;14.38;6.70;;;14.80;55.30;;;;;;4845471;29;20046;-78
2023/02/08 11:35:24;;;;;;;13.93;6.60;;;14.80;55.60;;;;;;4830897;29;20383;-77
2023/02/08 11:37:52;;;;;;;10.80;5.90;;;14.70;55.50;;;;;;4845927;29;20060;-79
2023/02/08 11:40:23;;;;;;;13.35;6.03;;;14.60;56.40;;;;;;4829836;29;20046;-79
2023/02/08 11:42:50;;;;;;;11.57;6.05;;;14.60;56.60;;;;;;4829576;29;20050;-77
2023/02/08 11:45:23;;;;;;;8.73;5.28;;;14.60;57.00;;;;;;4830040;29;20046;-78
2023/02/08 11:47:50;;;;;;;13.60;5.00;;;14.60;57.30;;;;;;4829669;29;20357;-79
2023/02/08 11:50:37;;;;;;;11.77;5.43;;;14.50;57.60;;;;;;4845828;29;20110;-77
2023/02/08 11:53:05;;;;;;;10.43;5.47;;;14.50;57.60;;;;;;4814525;29;20050;-78
2023/02/08 11:55:33;;;;;;;10.98;5.30;;;14.50;57.60;;;;;;4814806;29;20054;-78
2023/02/08 12:01:39;;;;;;;11.07;4.70;;;14.40;57.90;;;;;;4845819;29;20098;-77
2023/02/08 12:04:11;;;;;;;16.52;5.78;;;14.40;57.50;;;;;;4817909;29;20121;-76
2023/02/08 12:53:59;;;;;;;5.05;2.83;;;14.10;57.70;;;;;;4824841;29;20041;-80
2023/02/08 12:56:31;;;;;;;4.70;3.20;;;14.20;57.80;;;;;;4830756;29;20487;-80
2023/02/08 12:59:56;;;;;;;6.03;3.63;;;14.10;58.20;;;;;;4825485;29;20366;-78
2023/02/08 13:02:56;;;;;;;8.15;3.55;;;14.00;58.00;;;;;;4762582;30;20059;-79
2023/02/08 13:09:16;;;;;;;4.28;3.00;;;14.00;58.10;;;;;;4762571;30;20051;-78
2023/02/08 13:15:23;;;;;;;5.10;2.65;;;14.00;58.30;;;;;;4754386;30;20456;-79
2023/02/08 13:18:00;;;;;;;5.50;3.15;;;14.00;58.30;;;;;;4776769;30;20153;-78
2023/02/08 13:24:11;;;;;;;4.53;2.63;;;13.90;58.20;;;;;;4807970;29;20050;-79
2023/02/08 13:26:41;;;;;;;5.55;2.88;;;14.00;58.50;;;;;;4794254;29;20530;-78
2023/02/08 13:36:31;;;;;;;3.20;2.08;;;13.90;58.50;;;;;;4769602;29;20130;-77
2023/02/08 13:38:59;;;;;;;5.68;2.47;;;13.90;58.50;;;;;;4825305;29;20064;-77
2023/02/08 13:41:35;;;;;;;5.93;2.53;;;14.00;58.60;;;;;;4828271;29;20114;-75
2023/02/08 13:47:01;;;;;;;6.63;2.15;;;13.90;58.60;;;;;;4843851;29;20046;-77
2023/02/08 13:49:44;;;;;;;6.95;2.55;;;13.90;58.70;;;;;;4813300;29;20139;-77
2023/02/08 13:52:47;;;;;;;11.60;2.88;;;13.90;58.80;;;;;;4847910;29;20041;-78
2023/02/08 13:55:32;;;;;;;10.18;3.10;;;13.90;58.90;;;;;;4755730;30;20126;-77
2023/02/08 13:58:12;;;;;;;19.95;4.40;;;13.90;59.10;;;;;;4822275;29;20054;-76
2023/02/08 14:01:00;;;;;;;19.67;4.70;;;13.90;59.50;;;;;;4842102;29;20124;-76
2023/02/08 14:03:33;;;;;;;18.20;4.68;;;14.00;60.00;;;;;;4844604;29;20056;-75
2023/02/08 14:06:22;;;;;;;19.98;4.05;;;14.20;59.70;;;;;;4844023;29;20110;-76
2023/02/08 14:08:57;;;;;;;22.08;5.22;;;14.40;59.60;;;;;;4827554;29;20148;-72
2023/02/08 14:11:44;;;;;;;22.90;4.68;;;14.50;59.80;;;;;;4828210;29;20069;-74
2023/02/08 14:14:19;;;;;;;18.30;4.95;;;14.70;59.70;;;;;;4844209;29;20050;-74
2023/02/08 14:17:05;;;;;;;20.98;4.88;;;14.80;59.70;;;;;;4828523;29;20061;-75
2023/02/08 14:19:36;;;;;;;27.52;5.53;;;14.80;59.60;;;;;;4844098;29;20050;-77
2023/02/08 14:22:10;;;;;;;25.58;4.75;;;14.90;59.80;;;;;;4844555;29;20050;-75
2023/02/08 14:24:46;;;;;;;24.98;4.43;;;14.90;59.80;;;;;;4828804;29;20046;-74
2023/02/08 14:27:31;;;;;;;36.75;5.32;;;14.90;59.90;;;;;;4843349;29;20065;-76
2023/02/08 14:30:15;;;;;;;27.73;6.07;;;14.90;60.00;;;;;;4827853;29;20054;-71
2023/02/08 14:34:32;;;;;;;34.47;6.40;;;14.90;57.80;;;;;;5133671;27;20354;-71
2023/02/08 14:37:03;;;;;;;28.23;6.57;;;15.00;58.40;;;;;;5111722;28;20457;-72
2023/02/08 14:39:33;;;;;;;31.60;6.18;;;15.00;58.20;;;;;;5112617;28;20349;-73
2023/02/08 14:42:07;;;;;;;22.67;5.25;;;15.00;58.30;;;;;;5112304;28;20052;-72
2023/02/08 14:44:40;;;;;;;21.85;5.65;;;15.00;57.90;;;;;;5113012;28;20120;-76
2023/02/08 14:47:27;;;;;;;25.38;5.93;;;15.10;57.50;;;;;;5111563;28;20048;-77
2023/02/08 14:50:16;;;;;;;17.40;5.47;;;15.20;56.70;;;;;;5112511;28;20048;-71
2023/02/08 14:52:56;;;;;;;22.20;5.53;;;15.20;54.20;;;;;;5092253;28;20127;-75
2023/02/08 14:55:26;;;;;;;14.13;5.72;;;15.20;53.40;;;;;;5110375;28;20446;-71
2023/02/08 14:57:56;;;;;;;21.98;5.88;;;15.10;52.30;;;;;;5112202;28;20043;-73
2023/02/08 15:00:31;;;;;;;12.50;5.78;;;15.10;51.30;;;;;;5112367;28;20052;-72
2023/02/08 15:02:59;;;;;;;6.93;5.10;;;15.00;51.20;;;;;;5113144;28;20040;-74
2023/02/08 15:05:28;;;;;;;10.45;5.63;;;15.00;50.60;;;;;;5112183;28;20048;-71
2023/02/08 15:07:58;;;;;;;7.05;5.30;;;15.00;48.70;;;;;;5109658;28;20370;-71
2023/02/08 15:10:29;;;;;;;9.35;5.82;;;14.90;46.90;;;;;;5112213;28;20036;-73
2023/02/08 15:13:02;;;;;;;7.50;6.15;;;14.90;45.90;;;;;;5111712;28;20094;-72
2023/02/08 15:15:31;;;;;;;7.03;5.75;;;14.80;45.40;;;;;;5112308;28;20048;-71
2023/02/08 15:17:57;;;;;;;7.88;5.53;;;14.70;45.30;;;;;;5112261;28;20063;-75
2023/02/08 15:20:38;;;;;;;10.85;5.68;;;14.60;44.70;;;;;;5111465;28;20118;-77
2023/02/08 15:23:22;;;;;;;8.85;5.28;;;14.50;44.40;;;;;;5105854;28;20466;-77
2023/02/08 15:26:17;;;;;;;15.15;6.25;;;14.40;44.00;;;;;;5110851;28;20108;-76
2023/02/08 15:28:44;;;;;;;6.22;4.15;;;14.50;45.00;;;;;;5110655;28;20036;-77
2023/02/08 15:31:15;;;;;;;8.73;4.80;;;14.50;46.10;;;;;;5110521;28;20104;-77
2023/02/08 15:35:01;;;;;;;;;;;;;;;;;;;;;
2023/02/08 16:07:40;;;;;;;9.25;2.92;;;15.30;51.50;;;;;;4858458;29;20073;-77
2023/02/08 16:11:23;;;;;;;9.52;3.40;;;15.30;52.00;;;;;;4862218;29;20125;-77
2023/02/08 16:15:10;;;;;;;9.25;3.72;;;15.30;52.40;;;;;;4900464;29;20052;-77
2023/02/08 16:22:33;;;;;;;10.13;3.17;;;15.50;52.70;;;;;;4909856;29;20047;-77
2023/02/08 16:25:43;;;;;;;15.52;3.78;;;15.60;52.90;;;;;;4998683;28;20052;-77
2023/02/08 16:28:39;;;;;;;18.13;4.32;;;15.50;52.90;;;;;;5074847;28;20098;-76
2023/02/08 16:31:06;;;;;;;13.80;3.88;;;15.50;53.00;;;;;;5022483;28;20484;-75
2023/02/08 16:33:36;;;;;;;18.17;3.95;;;15.50;53.20;;;;;;5047656;28;20044;-75
2023/02/08 16:36:21;;;;;;;18.48;4.03;;;15.50;53.20;;;;;;5064711;28;20036;-75
2023/02/08 16:39:14;;;;;;;18.98;4.22;;;15.60;53.90;;;;;;5062542;28;20131;-76
2023/02/08 16:41:55;;;;;;;15.55;3.95;;;15.60;54.50;;;;;;5063804;28;20077;-79
2023/02/08 16:44:26;;;;;;;19.58;3.92;;;15.60;54.70;;;;;;5096469;28;20048;-74
2023/02/08 16:46:55;;;;;;;14.82;3.67;;;15.60;54.60;;;;;;5095780;28;20063;-76
2023/02/08 16:49:21;;;;;;;22.80;4.70;;;15.50;54.70;;;;;;5062660;28;20043;-76
2023/02/08 16:51:47;;;;;;;19.98;4.35;;;15.50;55.00;;;;;;5096861;28;20040;-77
2023/02/08 16:54:19;;;;;;;22.35;4.80;;;15.50;55.40;;;;;;5096781;28;20044;-77
2023/02/08 16:56:46;;;;;;;19.75;4.78;;;15.50;55.80;;;;;;5096058;28;20057;-75
2023/02/08 16:59:12;;;;;;;21.73;4.07;;;15.40;55.90;;;;;;5096642;28;20051;-76
2023/02/08 17:01:38;;;;;;;31.90;4.35;;;15.40;56.30;;;;;;5096482;28;20040;-76
2023/02/08 17:04:05;;;;;;;30.17;6.57;;;15.30;56.30;;;;;;5095743;28;20124;-74
2023/02/08 17:06:36;;;;;;;23.55;4.88;;;15.30;56.50;;;;;;5095436;28;20391;-76
2023/02/08 17:09:04;;;;;;;26.77;5.53;;;15.30;56.60;;;;;;5095394;28;20408;-76
2023/02/08 17:11:31;;;;;;;25.13;4.65;;;15.20;56.60;;;;;;5077517;28;20047;-75
2023/02/08 17:13:57;;;;;;;21.35;4.50;;;15.20;56.60;;;;;;5077322;28;20085;-75
2023/02/08 17:16:25;;;;;;;21.88;4.32;;;15.10;56.70;;;;;;5094085;28;20506;-77
